Time;durP1;ratioP1;P1;durP2;ratioP2;P2;SDS_P1;SDS_P2;PMS_P1;PMS_P2;Temp;Humidity;BMP_temperature;BMP_pressure;BME280_temperature;BME280_humidity;BME280_pressure;Samples;Min_cycle;Max_cycle;Signal;HPM_P1;HPM_P2
2021/06/04 00:01:21;;;;;;;4.05;3.70;;;;;;;23.39;40.43;100245.08;1810890;78;21557;-73
2021/06/04 00:03:49;;;;;;;5.78;3.47;;;;;;;23.37;40.49;100243.95;1780284;80;21034;-72
2021/06/04 00:06:16;;;;;;;4.90;3.25;;;;;;;23.35;40.64;100240.16;1817710;78;21072;-73
2021/06/04 00:08:43;;;;;;;4.70;3.77;;;;;;;23.33;40.73;100241.44;1787298;79;21018;-74
2021/06/04 00:11:20;;;;;;;5.17;2.95;;;;;;;23.32;40.91;100242.52;1782579;79;21862;-73
2021/06/04 00:13:56;;;;;;;4.72;3.47;;;;;;;23.30;40.97;100244.10;1804808;77;21100;-73
2021/06/04 00:16:34;;;;;;;4.15;3.50;;;;;;;23.28;41.05;100240.81;1785500;80;21527;-74
2021/06/04 00:19:04;;;;;;;4.62;3.20;;;;;;;23.26;41.19;100236.16;1802985;78;21068;-73
2021/06/04 00:21:39;;;;;;;5.37;3.67;;;;;;;23.24;41.25;100241.00;1782936;80;21545;-73
2021/06/04 00:24:08;;;;;;;3.55;3.25;;;;;;;23.22;41.32;100235.00;1809389;79;21331;-71
2021/06/04 00:26:35;;;;;;;4.10;3.30;;;;;;;23.20;41.49;100237.13;1792832;79;20991;-73
2021/06/04 00:29:06;;;;;;;6.22;3.65;;;;;;;23.18;41.59;100230.28;1796892;78;21026;-73
2021/06/04 00:31:32;;;;;;;7.17;3.40;;;;;;;23.18;41.64;100234.34;1799567;79;21003;-72
2021/06/04 00:33:59;;;;;;;6.00;3.20;;;;;;;23.15;41.71;100231.59;1810152;77;21516;-73
2021/06/04 00:36:27;;;;;;;3.58;3.25;;;;;;;23.15;41.76;100239.72;1792637;77;21002;-72
2021/06/04 00:38:55;;;;;;;4.22;3.42;;;;;;;23.14;41.79;100236.70;1782603;79;20998;-72
2021/06/04 00:41:27;;;;;;;4.47;3.52;;;;;;;23.12;41.84;100243.74;1820675;78;21013;-71
2021/06/04 00:43:55;;;;;;;5.25;3.45;;;;;;;23.10;41.91;100239.60;1805710;78;21014;-74
2021/06/04 00:46:22;;;;;;;4.92;3.55;;;;;;;23.09;41.97;100240.68;1799081;78;21058;-72
2021/06/04 00:48:51;;;;;;;5.22;2.92;;;;;;;23.08;41.98;100236.31;1792677;78;21093;-73
2021/06/04 00:51:39;;;;;;;5.20;3.90;;;;;;;23.05;42.06;100234.09;1798335;79;21025;-73
2021/06/04 00:54:09;;;;;;;5.70;3.55;;;;;;;23.05;42.08;100236.80;1804100;77;20982;-72
2021/06/04 00:56:37;;;;;;;4.55;2.80;;;;;;;23.02;42.14;100238.59;1818824;78;21029;-72
2021/06/04 00:59:05;;;;;;;4.62;3.67;;;;;;;23.00;42.10;100238.01;1811029;78;21029;-74
2021/06/04 01:01:33;;;;;;;3.80;3.50;;;;;;;22.99;42.14;100238.55;1814148;78;22093;-73
2021/06/04 01:04:14;;;;;;;4.22;3.50;;;;;;;22.98;42.21;100240.95;1788191;80;21002;-72
2021/06/04 01:07:15;;;;;;;4.33;3.45;;;;;;;22.96;42.23;100242.53;1806180;78;26230;-72
2021/06/04 01:10:09;;;;;;;3.50;3.10;;;;;;;22.95;42.26;100240.09;1771631;79;21002;-72
2021/06/04 01:13:21;;;;;;;4.90;3.12;;;;;;;22.90;42.28;100238.08;1790094;78;21024;-69
2021/06/04 01:16:07;;;;;;;5.78;3.30;;;;;;;22.86;42.24;100235.55;1795353;77;21046;-70
2021/06/04 01:19:26;;;;;;;4.17;3.17;;;;;;;22.79;42.32;100237.55;1818349;78;21048;-69
2021/06/04 01:21:57;;;;;;;3.77;3.42;;;;;;;22.75;42.51;100243.15;1821047;77;21030;-69
2021/06/04 01:24:44;;;;;;;5.97;3.87;;;;;;;22.70;42.69;100236.28;1796399;78;21085;-73
2021/06/04 01:27:18;;;;;;;5.65;3.40;;;;;;;22.69;42.71;100237.33;1817729;77;21059;-71
2021/06/04 01:29:54;;;;;;;4.92;3.30;;;;;;;22.68;42.79;100235.70;1789969;79;21556;-72
2021/06/04 01:32:25;;;;;;;3.83;3.50;;;;;;;22.67;42.87;100239.45;1796620;77;21074;-72
2021/06/04 01:35:00;;;;;;;4.58;3.25;;;;;;;22.65;42.87;100239.68;1812473;78;21497;-72
2021/06/04 01:37:31;;;;;;;4.37;3.15;;;;;;;22.66;42.89;100241.88;1791267;78;21045;-72
2021/06/04 01:40:17;;;;;;;3.45;3.15;;;;;;;22.65;42.96;100236.16;1795882;78;21034;-72
2021/06/04 01:42:47;;;;;;;5.97;3.30;;;;;;;22.65;43.02;100246.98;1779590;80;21069;-69
2021/06/04 01:45:26;;;;;;;3.47;3.17;;;;;;;22.64;43.13;100245.33;1801759;78;21041;-70
2021/06/04 01:48:11;;;;;;;4.10;2.87;;;;;;;22.64;43.14;100250.73;1808570;77;21588;-70
2021/06/04 01:50:57;;;;;;;4.87;3.00;;;;;;;22.63;43.22;100247.22;1769219;78;21018;-70
2021/06/04 01:53:34;;;;;;;4.58;3.70;;;;;;;22.64;43.26;100243.97;1753867;79;21982;-70
2021/06/04 01:56:07;;;;;;;4.83;3.40;;;;;;;22.62;43.34;100246.09;1793254;77;21112;-69
2021/06/04 01:58:47;;;;;;;3.58;3.27;;;;;;;22.62;43.43;100247.45;1762463;79;21044;-69
2021/06/04 02:01:26;;;;;;;4.20;3.75;;;;;;;22.62;43.45;100244.73;1786258;79;21081;-71
2021/06/04 02:03:54;;;;;;;4.90;3.58;;;;;;;22.61;43.47;100249.34;1808098;79;21085;-69
2021/06/04 02:06:22;;;;;;;9.05;3.95;;;;;;;22.61;43.60;100241.22;1800287;77;21065;-70
2021/06/04 02:08:53;;;;;;;7.30;4.08;;;;;;;22.61;43.70;100247.98;1799886;79;21131;-70
2021/06/04 02:11:27;;;;;;;5.05;3.60;;;;;;;22.61;43.74;100250.69;1781047;79;21037;-70
2021/06/04 02:13:56;;;;;;;4.08;3.42;;;;;;;22.61;43.81;100253.94;1792231;77;21028;-71
2021/06/04 02:16:57;;;;;;;5.05;3.75;;;;;;;22.61;43.85;100257.45;1789025;77;21476;-71
2021/06/04 02:19:36;;;;;;;4.30;3.58;;;;;;;22.61;43.90;100252.58;1784063;79;21498;-72
2021/06/04 02:22:12;;;;;;;4.25;3.62;;;;;;;22.60;43.98;100254.98;1783007;79;21356;-73
2021/06/04 02:25:09;;;;;;;5.50;3.77;;;;;;;22.58;44.05;100254.70;1753795;79;20993;-73
2021/06/04 02:27:41;;;;;;;3.95;3.45;;;;;;;22.57;44.20;100253.04;1783916;79;21088;-71
2021/06/04 02:30:26;;;;;;;6.72;3.37;;;;;;;22.56;44.31;100251.91;1788051;79;21021;-71
2021/06/04 02:33:18;;;;;;;5.35;3.87;;;;;;;22.55;44.31;100248.39;1760285;79;21041;-73
2021/06/04 02:35:58;;;;;;;5.92;4.10;;;;;;;22.56;44.35;100258.69;1772226;79;21533;-72
2021/06/04 02:38:47;;;;;;;4.40;3.62;;;;;;;22.53;44.48;100250.52;1788260;79;21454;-72
2021/06/04 02:41:22;;;;;;;4.45;3.55;;;;;;;22.52;44.63;100252.09;1778287;79;21033;-69
2021/06/04 02:43:58;;;;;;;4.75;3.30;;;;;;;22.51;44.65;100256.69;1808791;77;21053;-71
2021/06/04 02:46:35;;;;;;;4.83;3.62;;;;;;;22.51;44.70;100246.40;1783515;79;21006;-69
2021/06/04 02:49:03;;;;;;;5.03;3.87;;;;;;;22.49;44.77;100254.75;1804679;78;21111;-71
2021/06/04 02:51:41;;;;;;;5.25;3.45;;;;;;;22.48;44.84;100252.27;1798511;79;21041;-71
2021/06/04 02:55:30;;;;;;;5.70;4.25;;;;;;;22.52;44.98;100250.23;1864204;75;22546;-71
2021/06/04 02:57:57;;;;;;;5.30;3.98;;;;;;;22.46;45.25;100253.03;1808292;77;21013;-71
2021/06/04 03:00:38;;;;;;;4.90;3.92;;;;;;;22.46;45.38;100258.45;1816907;77;21128;-71
2021/06/04 03:03:01;;;;;;;5.22;4.62;;;;;;;22.46;45.40;100257.91;1819007;77;21043;-71
2021/06/04 03:05:32;;;;;;;4.60;4.03;;;;;;;22.47;45.47;100257.41;1821189;77;20998;-71
2021/06/04 03:07:59;;;;;;;5.40;3.90;;;;;;;22.47;45.62;100257.41;1812666;77;20985;-72
2021/06/04 03:10:39;;;;;;;4.30;3.75;;;;;;;22.48;45.71;100253.63;1815638;78;21508;-71
2021/06/04 03:13:08;;;;;;;4.53;4.10;;;;;;;22.50;45.58;100259.12;1796568;78;23508;-71
2021/06/04 03:15:47;;;;;;;4.95;4.47;;;;;;;22.50;45.52;100264.53;1817657;77;21559;-71
2021/06/04 03:18:20;;;;;;;6.22;3.83;;;;;;;22.51;45.61;100259.94;1822809;77;21091;-73
2021/06/04 03:20:48;;;;;;;4.62;3.67;;;;;;;22.51;45.67;100258.05;1814423;78;21044;-72
2021/06/04 03:23:19;;;;;;;4.37;3.98;;;;;;;22.51;45.86;100255.88;1822005;77;21045;-71
2021/06/04 03:25:54;;;;;;;5.33;4.05;;;;;;;22.50;45.91;100256.41;1820845;77;21006;-71
2021/06/04 03:28:24;;;;;;;6.47;4.37;;;;;;;22.51;45.95;100256.69;1837665;77;21488;-72
2021/06/04 03:30:51;;;;;;;5.00;4.40;;;;;;;22.52;46.04;100253.45;1804486;78;21545;-72
2021/06/04 03:33:23;;;;;;;4.10;3.70;;;;;;;22.53;46.06;100261.34;1815318;78;21066;-71
2021/06/04 03:35:51;;;;;;;4.92;4.10;;;;;;;22.53;46.25;100255.92;1828156;77;25204;-72
2021/06/04 03:38:18;;;;;;;4.65;4.05;;;;;;;22.53;46.30;100257.28;1829256;77;21102;-73
2021/06/04 03:40:47;;;;;;;5.35;4.17;;;;;;;22.54;46.39;100264.86;1827493;77;21052;-71
2021/06/04 03:43:16;;;;;;;6.53;4.70;;;;;;;22.55;46.40;100261.11;1816767;77;21013;-71
2021/06/04 03:45:44;;;;;;;6.55;4.45;;;;;;;22.55;46.53;100254.34;1828760;77;21060;-71
2021/06/04 03:48:16;;;;;;;5.17;4.25;;;;;;;22.57;46.69;100256.28;1817310;77;20993;-71
2021/06/04 03:50:42;;;;;;;5.33;4.75;;;;;;;22.58;46.68;100256.59;1814767;77;21830;-70
2021/06/04 03:53:09;;;;;;;4.78;4.17;;;;;;;22.58;46.78;100258.77;1828840;77;21485;-69
2021/06/04 03:55:38;;;;;;;5.75;4.45;;;;;;;22.60;46.83;100256.33;1825434;77;22222;-70
2021/06/04 03:58:05;;;;;;;5.12;4.65;;;;;;;22.61;46.82;100255.29;1798267;77;21018;-69
2021/06/04 04:00:37;;;;;;;4.30;3.90;;;;;;;22.62;46.91;100265.05;1812131;77;20985;-70
2021/06/04 04:03:06;;;;;;;5.30;4.80;;;;;;;22.64;46.93;100268.34;1821749;77;21932;-73
2021/06/04 04:05:34;;;;;;;6.05;4.30;;;;;;;22.65;46.92;100259.17;1817857;78;21056;-70
2021/06/04 04:08:02;;;;;;;5.33;4.28;;;;;;;22.68;46.97;100261.42;1818533;77;21044;-71
2021/06/04 04:10:29;;;;;;;5.53;4.12;;;;;;;22.70;46.84;100257.41;1818340;78;21103;-71
2021/06/04 04:12:56;;;;;;;7.70;4.20;;;;;;;22.74;46.79;100261.29;1817191;77;21033;-70
2021/06/04 04:15:25;;;;;;;7.58;4.80;;;;;;;22.76;46.98;100259.17;1819485;77;21125;-71
2021/06/04 04:17:53;;;;;;;5.20;4.40;;;;;;;22.79;46.96;100257.86;1817361;77;21094;-70
2021/06/04 04:20:27;;;;;;;6.10;4.22;;;;;;;22.81;47.05;100255.74;1803989;78;21055;-71
2021/06/04 04:22:55;;;;;;;6.03;4.42;;;;;;;22.84;46.95;100257.98;1810363;77;21093;-70
2021/06/04 04:25:24;;;;;;;6.17;4.25;;;;;;;22.88;47.08;100271.34;1813943;78;21028;-74
2021/06/04 04:27:50;;;;;;;5.03;4.53;;;;;;;22.90;47.15;100263.81;1809938;77;21075;-73
2021/06/04 04:30:18;;;;;;;5.85;4.85;;;;;;;22.93;47.15;100262.53;1812034;77;21092;-72
2021/06/04 04:32:44;;;;;;;11.12;4.20;;;;;;;22.96;47.17;100270.16;1817121;78;20993;-72
2021/06/04 04:35:17;;;;;;;4.90;4.33;;;;;;;22.99;47.18;100266.18;1808041;78;21024;-71
2021/06/04 04:37:43;;;;;;;6.00;4.20;;;;;;;23.02;47.15;100262.98;1807990;77;21659;-72
2021/06/04 04:40:10;;;;;;;5.30;4.70;;;;;;;23.03;47.01;100262.78;1805593;77;21923;-74
2021/06/04 04:42:37;;;;;;;7.12;4.70;;;;;;;23.06;47.05;100266.89;1806459;77;21016;-73
2021/06/04 04:45:06;;;;;;;4.72;4.12;;;;;;;23.09;47.12;100273.20;1816478;77;20998;-74
2021/06/04 04:47:33;;;;;;;6.80;4.95;;;;;;;23.11;47.15;100267.01;1818324;77;21017;-75
2021/06/04 04:50:01;;;;;;;7.65;4.62;;;;;;;23.14;47.32;100264.65;1811117;78;21098;-74
2021/06/04 04:52:27;;;;;;;6.33;4.50;;;;;;;23.19;47.37;100260.40;1809687;77;21730;-74
2021/06/04 04:54:55;;;;;;;9.03;4.40;;;;;;;23.21;47.30;100255.02;1851594;76;21472;-76
2021/06/04 04:57:23;;;;;;;6.92;4.87;;;;;;;23.26;47.26;100265.16;1855752;76;21017;-74
2021/06/04 04:59:50;;;;;;;5.92;4.55;;;;;;;23.30;47.32;100260.91;1831894;77;21013;-75
2021/06/04 05:02:17;;;;;;;5.35;4.80;;;;;;;23.33;47.23;100265.32;1835603;77;21546;-73
2021/06/04 05:04:43;;;;;;;7.58;5.28;;;;;;;23.38;47.30;100265.13;1835958;76;21147;-71
2021/06/04 05:07:10;;;;;;;5.58;4.58;;;;;;;23.43;47.44;100263.86;1838538;77;20987;-72
2021/06/04 05:09:36;;;;;;;6.62;4.72;;;;;;;23.48;47.49;100273.46;1826436;77;20997;-71
2021/06/04 05:12:04;;;;;;;5.58;4.30;;;;;;;23.53;47.46;100279.00;1819950;77;21075;-72
2021/06/04 05:14:30;;;;;;;6.45;4.15;;;;;;;23.56;47.39;100273.07;1826479;77;21540;-71
2021/06/04 05:17:00;;;;;;;5.10;4.12;;;;;;;23.61;47.34;100269.66;1826740;77;21008;-72
2021/06/04 05:19:28;;;;;;;6.00;3.98;;;;;;;23.65;47.23;100272.98;1825668;78;20969;-71
2021/06/04 05:21:55;;;;;;;8.40;4.40;;;;;;;23.68;47.10;100265.73;1807676;78;21043;-69
2021/06/04 05:24:21;;;;;;;6.92;4.15;;;;;;;23.72;46.99;100266.89;1826910;78;21038;-72
2021/06/04 05:26:48;;;;;;;8.15;3.80;;;;;;;23.77;46.70;100266.70;1825914;76;21056;-72
2021/06/04 05:29:15;;;;;;;7.92;4.15;;;;;;;23.79;46.56;100268.66;1829673;78;21531;-73
2021/06/04 05:31:41;;;;;;;5.72;4.42;;;;;;;23.82;46.23;100269.55;1829147;76;21035;-73
2021/06/04 05:34:08;;;;;;;6.80;3.60;;;;;;;23.85;45.89;100267.69;1822748;78;21099;-73
2021/06/04 05:36:36;;;;;;;7.87;3.80;;;;;;;23.88;45.74;100271.28;1816477;76;21005;-72
2021/06/04 05:39:18;;;;;;;5.97;3.77;;;;;;;23.90;45.52;100263.18;1820070;76;21060;-73
2021/06/04 05:41:49;;;;;;;7.50;3.80;;;;;;;23.92;45.23;100261.05;1814265;77;21108;-73
2021/06/04 05:44:19;;;;;;;5.83;3.90;;;;;;;23.94;44.94;100268.41;1818842;76;21071;-74
2021/06/04 05:46:50;;;;;;;5.45;3.90;;;;;;;23.97;44.81;100270.34;1824778;76;21516;-69
2021/06/04 05:49:19;;;;;;;5.65;3.72;;;;;;;23.99;44.56;100268.20;1820453;76;21097;-71
2021/06/04 05:51:46;;;;;;;7.03;4.15;;;;;;;24.00;44.34;100265.25;1832320;78;21623;-70
2021/06/04 05:54:14;;;;;;;5.12;3.50;;;;;;;23.89;44.30;100243.07;1831496;77;21174;-72
2021/06/04 05:56:40;;;;;;;4.67;3.90;;;;;;;24.05;44.10;100273.49;1835596;77;21056;-70
2021/06/04 05:59:07;;;;;;;5.08;3.67;;;;;;;24.07;44.10;100271.36;1815894;77;21056;-72
2021/06/04 06:01:35;;;;;;;6.40;3.98;;;;;;;24.10;43.94;100274.11;1827384;77;21049;-71
2021/06/04 06:04:03;;;;;;;7.65;4.28;;;;;;;24.12;43.83;100274.14;1827449;77;21005;-72
2021/06/04 06:06:32;;;;;;;5.42;3.90;;;;;;;24.14;43.71;100278.81;1826002;77;21142;-71
2021/06/04 06:08:59;;;;;;;10.00;4.15;;;;;;;24.18;43.73;100277.77;1823211;77;21010;-71
2021/06/04 06:11:29;;;;;;;5.12;3.83;;;;;;;24.19;43.53;100280.78;1808019;77;21525;-71
2021/06/04 06:13:57;;;;;;;7.03;3.77;;;;;;;24.20;43.40;100276.98;1825939;77;21593;-72
2021/06/04 06:16:26;;;;;;;10.53;4.05;;;;;;;24.22;43.19;100280.31;1814509;77;21037;-71
2021/06/04 06:18:53;;;;;;;4.80;3.80;;;;;;;24.24;43.28;100278.68;1818308;77;21107;-71
2021/06/04 06:21:20;;;;;;;7.17;4.12;;;;;;;24.24;43.12;100276.81;1832656;77;21132;-70
2021/06/04 06:23:46;;;;;;;5.33;3.90;;;;;;;24.26;42.96;100281.97;1782716;78;21061;-71
2021/06/04 06:26:18;;;;;;;8.25;4.10;;;;;;;24.28;42.98;100281.19;1813903;77;21107;-72
2021/06/04 06:28:45;;;;;;;7.53;4.22;;;;;;;24.18;42.83;100253.88;1812158;77;21162;-71
2021/06/04 06:31:15;;;;;;;8.80;4.05;;;;;;;24.29;42.81;100280.95;1828295;77;21128;-70
2021/06/04 06:33:42;;;;;;;8.78;4.53;;;;;;;24.31;42.74;100272.56;1814531;77;21032;-73
2021/06/04 06:36:13;;;;;;;6.62;4.30;;;;;;;24.33;42.54;100271.78;1809227;77;21115;-74
2021/06/04 06:38:40;;;;;;;9.15;4.50;;;;;;;24.33;42.67;100268.52;1807105;77;21004;-73
2021/06/04 06:41:08;;;;;;;5.70;3.50;;;;;;;24.34;42.68;100270.73;1813918;78;20974;-74
2021/06/04 06:43:37;;;;;;;7.40;4.33;;;;;;;24.37;42.48;100268.86;1819448;77;21534;-74
2021/06/04 06:46:05;;;;;;;7.35;4.25;;;;;;;24.38;42.50;100271.88;1822857;77;21033;-72
2021/06/04 06:48:32;;;;;;;8.78;3.83;;;;;;;24.41;42.38;100269.20;1818668;78;21071;-73
2021/06/04 06:51:00;;;;;;;5.92;3.75;;;;;;;24.41;42.32;100267.30;1821969;77;21237;-73
2021/06/04 06:53:27;;;;;;;7.05;3.87;;;;;;;24.43;42.22;100267.87;1818816;77;21101;-69
2021/06/04 06:55:54;;;;;;;5.35;3.72;;;;;;;24.45;42.23;100271.16;1817978;77;21099;-70
2021/06/04 06:58:21;;;;;;;6.10;3.98;;;;;;;24.45;42.08;100263.01;1830767;77;21474;-79
2021/06/04 07:00:49;;;;;;;8.60;3.58;;;;;;;24.47;42.00;100265.48;1813478;78;21580;-81
2021/06/04 07:03:23;;;;;;;7.65;3.83;;;;;;;24.48;41.92;100261.17;1821525;77;21045;-81
2021/06/04 07:05:51;;;;;;;7.45;3.80;;;;;;;24.51;41.87;100262.59;1824794;77;21535;-80
2021/06/04 07:08:17;;;;;;;6.97;4.00;;;;;;;24.52;41.81;100258.81;1833516;77;21102;-86
2021/06/04 07:10:44;;;;;;;6.37;3.98;;;;;;;24.52;41.86;100256.10;1826650;78;21010;-81
2021/06/04 07:13:12;;;;;;;7.50;3.95;;;;;;;24.51;41.75;100251.22;1828416;77;21052;-79
2021/06/04 07:15:40;;;;;;;6.37;3.62;;;;;;;24.56;41.63;100259.96;1825045;78;21564;-77
2021/06/04 07:18:07;;;;;;;9.10;4.17;;;;;;;24.58;41.62;100252.39;1829049;77;21013;-69
2021/06/04 07:20:35;;;;;;;4.92;3.27;;;;;;;24.60;41.46;100250.24;1825575;77;21087;-61
2021/06/04 07:23:03;;;;;;;5.58;3.12;;;;;;;24.62;41.20;100245.92;1825905;77;21184;-62
2021/06/04 07:25:33;;;;;;;4.00;3.20;;;;;;;24.64;41.01;100244.59;1825422;78;21041;-63
2021/06/04 07:28:00;;;;;;;6.30;3.42;;;;;;;24.66;40.84;100248.42;1835967;77;21109;-76
2021/06/04 07:30:33;;;;;;;6.97;3.40;;;;;;;24.70;40.85;100250.39;1823571;77;21084;-73
2021/06/04 07:33:04;;;;;;;8.55;4.00;;;;;;;24.72;40.68;100250.98;1819320;77;21083;-68
2021/06/04 07:35:31;;;;;;;18.45;9.88;;;;;;;24.74;41.97;100248.00;1828600;77;21008;-68
2021/06/04 07:37:57;;;;;;;21.07;12.40;;;;;;;24.73;43.02;100255.88;1829554;77;21025;-73
2021/06/04 07:40:26;;;;;;;12.03;8.35;;;;;;;24.75;43.07;100256.45;1823329;78;21080;-69
2021/06/04 07:42:54;;;;;;;15.45;7.87;;;;;;;24.76;43.12;100248.56;1820530;78;21036;-71
2021/06/04 07:45:24;;;;;;;13.15;7.30;;;;;;;24.78;43.16;100254.57;1833772;77;21124;-73
2021/06/04 07:47:51;;;;;;;15.75;7.62;;;;;;;24.79;42.86;100249.98;1816930;78;21021;-72
2021/06/04 07:50:20;;;;;;;10.30;7.30;;;;;;;24.81;41.86;100247.84;1824001;77;21087;-70
2021/06/04 07:52:47;;;;;;;10.80;6.00;;;;;;;24.83;42.29;100243.78;1806600;77;21092;-72
2021/06/04 07:55:15;;;;;;;13.38;5.80;;;;;;;24.86;42.41;100247.89;1831172;77;21043;-74
2021/06/04 07:57:42;;;;;;;8.93;4.55;;;;;;;24.87;42.60;100247.64;1832445;77;21307;-69
2021/06/04 08:00:18;;;;;;;6.53;4.17;;;;;;;24.90;41.91;100239.55;1826122;77;21504;-69
2021/06/04 08:02:45;;;;;;;7.97;4.37;;;;;;;24.91;39.94;100239.81;1809588;77;21578;-67
2021/06/04 08:05:14;;;;;;;5.55;3.90;;;;;;;24.91;40.49;100241.17;1823723;78;21111;-67
2021/06/04 08:07:41;;;;;;;6.42;3.87;;;;;;;24.93;40.66;100240.39;1828773;77;21007;-68
2021/06/04 08:10:11;;;;;;;8.05;4.30;;;;;;;24.95;40.57;100237.42;1831024;77;21938;-66
2021/06/04 08:12:38;;;;;;;4.42;3.27;;;;;;;24.98;40.07;100236.39;1825347;77;21017;-68
2021/06/04 08:15:13;;;;;;;5.92;3.52;;;;;;;25.01;39.48;100241.84;1808477;77;21076;-68
2021/06/04 08:17:41;;;;;;;8.50;3.20;;;;;;;25.03;39.60;100228.83;1826368;78;21016;-68
2021/06/04 08:20:10;;;;;;;5.95;3.22;;;;;;;25.03;39.38;100236.98;1834650;77;20989;-68
2021/06/04 08:22:42;;;;;;;6.35;3.52;;;;;;;25.06;39.57;100232.41;1815261;76;21052;-69
2021/06/04 08:25:11;;;;;;;4.70;3.02;;;;;;;25.08;39.01;100234.34;1822028;77;21058;-70
2021/06/04 08:27:38;;;;;;;9.33;4.17;;;;;;;25.09;38.91;100238.69;1824738;77;21059;-71
2021/06/04 08:30:08;;;;;;;5.80;2.80;;;;;;;25.11;38.22;100233.30;1831957;76;21103;-72
2021/06/04 08:32:36;;;;;;;6.05;3.33;;;;;;;25.12;38.30;100233.57;1825785;77;21072;-73
2021/06/04 08:35:05;;;;;;;5.10;3.15;;;;;;;25.15;38.50;100234.98;1819862;77;21132;-71
2021/06/04 08:37:32;;;;;;;6.87;3.20;;;;;;;25.18;38.81;100229.02;1820577;76;21195;-70
2021/06/04 08:39:59;;;;;;;3.77;3.00;;;;;;;25.22;38.17;100234.78;1815701;77;21050;-70
2021/06/04 08:42:50;;;;;;;6.12;2.72;;;;;;;25.22;37.47;100236.98;1826756;77;21019;-71
2021/06/04 08:45:38;;;;;;;3.92;2.70;;;;;;;25.23;37.74;100237.28;1818382;78;21043;-71
2021/06/04 08:48:14;;;;;;;4.45;2.67;;;;;;;25.20;38.14;100226.87;1826312;77;21132;-71
2021/06/04 08:51:22;;;;;;;3.15;2.58;;;;;;;25.28;38.05;100239.23;1820528;77;21310;-71
2021/06/04 08:54:30;;;;;;;4.45;3.10;;;;;;;25.27;37.52;100237.06;1825182;76;21044;-71
2021/06/04 08:57:23;;;;;;;4.03;2.52;;;;;;;25.29;37.56;100234.91;1794053;78;21052;-69
2021/06/04 08:59:49;;;;;;;5.05;2.95;;;;;;;25.29;37.15;100238.98;1820315;77;21021;-67
2021/06/04 09:02:21;;;;;;;4.35;2.83;;;;;;;25.31;37.67;100234.11;1823399;78;21124;-68
2021/06/04 09:05:01;;;;;;;5.20;2.77;;;;;;;25.35;37.11;100234.97;1822493;77;21543;-68
2021/06/04 09:07:32;;;;;;;3.95;2.90;;;;;;;25.37;37.25;100237.72;1807746;78;21013;-72
2021/06/04 09:10:32;;;;;;;8.03;3.30;;;;;;;25.39;36.49;100230.67;1822581;78;21541;-68
2021/06/04 09:13:23;;;;;;;4.62;2.67;;;;;;;25.42;36.89;100229.63;1821633;77;21049;-66
2021/06/04 09:15:54;;;;;;;4.00;2.55;;;;;;;25.45;36.13;100227.73;1824813;77;21932;-69
2021/06/04 09:18:25;;;;;;;3.92;2.62;;;;;;;25.47;36.82;100222.86;1820189;77;21536;-69
2021/06/04 09:21:05;;;;;;;4.90;2.60;;;;;;;25.53;37.34;100222.92;1828441;77;21267;-69
2021/06/04 09:23:38;;;;;;;5.03;2.50;;;;;;;25.58;37.63;100221.63;1818354;77;21041;-69
2021/06/04 09:26:10;;;;;;;5.30;2.42;;;;;;;25.63;37.56;100223.87;1827242;77;21044;-69
2021/06/04 09:28:57;;;;;;;4.08;2.42;;;;;;;25.65;37.28;100214.91;1818753;77;21774;-68
2021/06/04 09:31:34;;;;;;;6.03;2.27;;;;;;;25.72;37.56;100216.60;1816109;78;21072;-70
2021/06/04 09:34:18;;;;;;;4.78;2.40;;;;;;;25.76;37.53;100201.40;1829289;77;21068;-69
2021/06/04 09:36:51;;;;;;;2.42;2.22;;;;;;;25.80;37.47;100202.52;1794917;77;21147;-65
2021/06/04 09:39:46;;;;;;;7.58;3.08;;;;;;;25.82;37.29;100203.89;1822176;77;20996;-67
2021/06/04 09:42:29;;;;;;;3.27;2.30;;;;;;;25.85;35.78;100208.02;1819629;77;22336;-70
2021/06/04 09:45:00;;;;;;;9.05;3.12;;;;;;;25.89;36.13;100205.88;1812317;78;21018;-66
2021/06/04 09:47:41;;;;;;;3.10;2.55;;;;;;;25.93;36.30;100205.41;1815483;77;21543;-69
2021/06/04 09:50:26;;;;;;;6.42;2.58;;;;;;;25.96;36.28;100211.16;1816180;77;21104;-66
2021/06/04 09:53:22;;;;;;;5.12;2.50;;;;;;;25.99;35.74;100209.26;1807315;77;21053;-68
2021/06/04 09:56:09;;;;;;;6.40;2.30;;;;;;;26.03;35.48;100208.20;1807749;77;21141;-67
2021/06/04 09:58:58;;;;;;;6.65;2.83;;;;;;;26.05;33.78;100209.58;1829752;77;21020;-68
2021/06/04 10:01:29;;;;;;;3.90;2.30;;;;;;;26.08;34.06;100202.81;1820597;77;21009;-69
2021/06/04 10:04:05;;;;;;;3.35;2.60;;;;;;;26.13;34.87;100201.47;1817952;77;21014;-69
2021/06/04 10:06:42;;;;;;;3.98;2.70;;;;;;;26.19;35.56;100205.05;1829252;77;20966;-68
2021/06/04 10:09:27;;;;;;;2.92;2.20;;;;;;;26.23;36.01;100193.41;1821179;77;21777;-67
2021/06/04 10:12:04;;;;;;;9.23;2.70;;;;;;;26.26;36.11;100192.86;1823010;78;21246;-65
2021/06/04 10:14:57;;;;;;;6.37;2.50;;;;;;;26.29;36.05;100192.91;1807283;78;21512;-68
2021/06/04 10:19:58;;;;;;;4.80;2.52;;;;;;;26.41;36.05;100194.07;1813980;77;20966;-70
2021/06/04 10:22:40;;;;;;;4.87;2.50;;;;;;;26.45;35.87;100195.99;1817782;78;21308;-69
2021/06/04 10:25:12;;;;;;;4.05;2.58;;;;;;;26.50;36.29;100196.56;1831976;77;21096;-66
2021/06/04 10:27:42;;;;;;;3.35;2.42;;;;;;;26.56;36.36;100196.05;1820374;77;21021;-66
2021/06/04 10:30:20;;;;;;;3.85;2.50;;;;;;;26.60;36.38;100202.13;1817106;77;21029;-66
2021/06/04 10:33:23;;;;;;;3.58;2.45;;;;;;;26.65;36.35;100193.95;1815681;77;21575;-67
2021/06/04 10:36:00;;;;;;;7.72;2.60;;;;;;;26.71;36.19;100185.82;1804907;78;21793;-66
2021/06/04 10:38:39;;;;;;;3.40;2.47;;;;;;;26.75;36.32;100192.38;1809613;78;21004;-70
2021/06/04 10:41:15;;;;;;;4.62;2.33;;;;;;;26.80;36.30;100196.50;1820784;77;21115;-70
2021/06/04 10:44:11;;;;;;;9.60;4.28;;;;;;;26.85;36.21;100194.62;1816189;77;21062;-70
2021/06/04 10:47:01;;;;;;;13.35;9.00;;;;;;;26.90;35.87;100184.28;1818676;77;21486;-71
2021/06/04 10:50:17;;;;;;;17.15;11.03;;;;;;;26.94;36.20;100193.56;1819039;77;21105;-71
2021/06/04 10:53:11;;;;;;;10.63;9.25;;;;;;;27.01;36.35;100189.24;1811510;77;21559;-70
2021/06/04 10:55:58;;;;;;;10.63;8.58;;;;;;;27.08;36.45;100193.88;1852566;77;21024;-72
2021/06/04 10:58:30;;;;;;;11.63;7.75;;;;;;;27.16;36.38;100190.66;1809374;78;21552;-70
2021/06/04 11:01:05;;;;;;;9.33;7.27;;;;;;;27.28;36.27;100195.10;1828842;77;21518;-70
2021/06/04 11:03:54;;;;;;;8.83;6.17;;;;;;;27.38;36.27;100191.03;1813079;77;21305;-70
2021/06/04 11:06:31;;;;;;;7.67;5.12;;;;;;;27.49;36.28;100187.24;1823756;77;21512;-72
2021/06/04 11:09:35;;;;;;;5.90;5.10;;;;;;;27.60;36.34;100181.23;1804834;77;20986;-72
2021/06/04 11:12:23;;;;;;;6.95;3.95;;;;;;;27.72;36.39;100187.28;1816892;77;21036;-70
2021/06/04 11:15:39;;;;;;;3.90;3.10;;;;;;;27.83;36.21;100175.80;1820625;77;21066;-70
2021/06/04 11:18:41;;;;;;;3.65;2.77;;;;;;;27.94;36.03;100176.11;1825796;77;21492;-70
2021/06/04 11:21:33;;;;;;;5.00;2.83;;;;;;;28.06;35.25;100183.22;1801814;78;21102;-72
2021/06/04 11:24:07;;;;;;;4.33;2.42;;;;;;;28.17;35.19;100184.86;1810090;76;21027;-70
2021/06/04 11:26:42;;;;;;;4.37;2.65;;;;;;;28.27;35.40;100191.66;1829819;77;20990;-72
2021/06/04 11:29:12;;;;;;;5.60;2.47;;;;;;;28.38;35.49;100179.63;1831526;77;25873;-70
2021/06/04 11:32:07;;;;;;;3.87;2.50;;;;;;;28.49;35.01;100185.91;1831222;77;21926;-70
2021/06/04 11:34:53;;;;;;;3.58;2.30;;;;;;;28.59;35.04;100181.80;1831281;77;21461;-71
2021/06/04 11:37:59;;;;;;;3.98;2.12;;;;;;;28.70;35.12;100178.48;1820182;77;21449;-71
2021/06/04 11:40:39;;;;;;;2.33;2.02;;;;;;;28.81;34.93;100183.37;1804066;78;21017;-71
2021/06/04 11:43:11;;;;;;;3.27;2.00;;;;;;;28.91;34.74;100192.90;1814046;77;21063;-71
2021/06/04 11:45:37;;;;;;;4.17;2.20;;;;;;;29.01;34.82;100188.77;1829277;77;21724;-71
2021/06/04 11:48:32;;;;;;;6.45;2.25;;;;;;;29.13;35.08;100183.00;1815132;77;21008;-71
2021/06/04 11:51:20;;;;;;;3.75;2.27;;;;;;;29.23;34.65;100181.32;1807048;78;21542;-71
2021/06/04 11:53:53;;;;;;;3.12;2.12;;;;;;;29.31;33.79;100177.98;1823971;78;21036;-71
2021/06/04 11:56:49;;;;;;;3.40;2.10;;;;;;;29.40;33.61;100179.03;1850411;76;21002;-70
2021/06/04 11:59:49;;;;;;;2.35;2.02;;;;;;;29.48;33.97;100182.53;1822762;77;21956;-71
2021/06/04 12:02:36;;;;;;;5.97;2.50;;;;;;;29.56;32.90;100183.30;1849512;76;20957;-72